sensor_id;sensor_type;location;lat;lon;timestamp;pressure;altitude;pressure_sealevel;temperature;humidity
57885;BME280;43703;51.060;-0.086;2023-03-01T00:00:19;101726.20;;;-0.45;67.24
57885;BME280;43703;51.060;-0.086;2023-03-01T00:02:45;101727.64;;;0.09;65.97
57885;BME280;43703;51.060;-0.086;2023-03-01T00:05:10;101732.18;;;-0.12;66.42
57885;BME280;43703;51.060;-0.086;2023-03-01T00:07:36;101731.85;;;0.07;66.22
57885;BME280;43703;51.060;-0.086;2023-03-01T00:10:01;101732.47;;;0.06;65.69
57885;BME280;43703;51.060;-0.086;2023-03-01T00:12:26;101736.99;;;-0.32;65.89
57885;BME280;43703;51.060;-0.086;2023-03-01T00:14:52;101738.62;;;-0.45;66.44
57885;BME280;43703;51.060;-0.086;2023-03-01T00:17:19;101738.46;;;-0.44;67.33
57885;BME280;43703;51.060;-0.086;2023-03-01T00:19:43;101735.83;;;-0.38;66.59
57885;BME280;43703;51.060;-0.086;2023-03-01T00:22:09;101731.81;;;-0.40;66.49
57885;BME280;43703;51.060;-0.086;2023-03-01T00:24:34;101731.40;;;-0.20;65.66
57885;BME280;43703;51.060;-0.086;2023-03-01T00:27:00;101734.19;;;-0.63;66.92
57885;BME280;43703;51.060;-0.086;2023-03-01T00:29:26;101736.97;;;-0.48;66.89
57885;BME280;43703;51.060;-0.086;2023-03-01T00:31:51;101730.48;;;-0.52;67.21
57885;BME280;43703;51.060;-0.086;2023-03-01T00:34:17;101736.23;;;-0.34;66.91
57885;BME280;43703;51.060;-0.086;2023-03-01T00:36:43;101735.60;;;-0.46;66.41
57885;BME280;43703;51.060;-0.086;2023-03-01T00:39:11;101737.03;;;-0.46;66.71
57885;BME280;43703;51.060;-0.086;2023-03-01T00:41:34;101737.27;;;-0.05;66.22
57885;BME280;43703;51.060;-0.086;2023-03-01T00:43:59;101728.70;;;-0.06;66.44
57885;BME280;43703;51.060;-0.086;2023-03-01T00:46:26;101726.36;;;-0.43;66.90
57885;BME280;43703;51.060;-0.086;2023-03-01T00:48:50;101728.52;;;-0.33;66.67
57885;BME280;43703;51.060;-0.086;2023-03-01T00:51:17;101725.75;;;0.12;66.60
57885;BME280;43703;51.060;-0.086;2023-03-01T00:53:42;101734.27;;;-0.11;66.82
57885;BME280;43703;51.060;-0.086;2023-03-01T00:56:08;101732.84;;;0.08;66.58
57885;BME280;43703;51.060;-0.086;2023-03-01T00:58:33;101736.74;;;-0.15;67.06
57885;BME280;43703;51.060;-0.086;2023-03-01T01:00:58;101732.30;;;-0.43;66.71
57885;BME280;43703;51.060;-0.086;2023-03-01T01:03:24;101727.47;;;0.04;67.04
57885;BME280;43703;51.060;-0.086;2023-03-01T01:05:49;101723.25;;;0.34;66.26
57885;BME280;43703;51.060;-0.086;2023-03-01T01:08:15;101722.02;;;0.05;66.26
57885;BME280;43703;51.060;-0.086;2023-03-01T01:10:43;101726.16;;;0.57;66.60
57885;BME280;43703;51.060;-0.086;2023-03-01T01:13:06;101724.10;;;0.94;66.36
57885;BME280;43703;51.060;-0.086;2023-03-01T01:15:34;101720.36;;;0.96;66.05
57885;BME280;43703;51.060;-0.086;2023-03-01T01:17:57;101718.46;;;-0.06;65.54
57885;BME280;43703;51.060;-0.086;2023-03-01T01:20:22;101714.28;;;0.17;65.16
57885;BME280;43703;51.060;-0.086;2023-03-01T01:22:48;101716.08;;;0.49;65.53
57885;BME280;43703;51.060;-0.086;2023-03-01T01:25:13;101711.42;;;1.41;65.88
57885;BME280;43703;51.060;-0.086;2023-03-01T01:27:39;101713.53;;;0.73;64.70
57885;BME280;43703;51.060;-0.086;2023-03-01T01:30:05;101713.98;;;0.42;64.29
57885;BME280;43703;51.060;-0.086;2023-03-01T01:32:29;101718.30;;;0.46;64.92
57885;BME280;43703;51.060;-0.086;2023-03-01T01:34:55;101716.95;;;0.60;65.18
57885;BME280;43703;51.060;-0.086;2023-03-01T01:37:21;101717.28;;;1.05;65.25
57885;BME280;43703;51.060;-0.086;2023-03-01T01:39:46;101716.66;;;0.89;65.82
57885;BME280;43703;51.060;-0.086;2023-03-01T01:42:15;101712.51;;;1.47;65.59
57885;BME280;43703;51.060;-0.086;2023-03-01T01:44:37;101707.15;;;1.04;64.97
57885;BME280;43703;51.060;-0.086;2023-03-01T01:47:12;101705.25;;;0.64;65.62
57885;BME280;43703;51.060;-0.086;2023-03-01T01:49:32;101705.98;;;0.54;65.66
57885;BME280;43703;51.060;-0.086;2023-03-01T01:52:00;101702.74;;;0.83;65.59
57885;BME280;43703;51.060;-0.086;2023-03-01T01:54:21;101701.30;;;1.08;65.61
57885;BME280;43703;51.060;-0.086;2023-03-01T01:56:48;101702.59;;;1.22;65.29
57885;BME280;43703;51.060;-0.086;2023-03-01T01:59:10;101693.29;;;1.11;65.47
57885;BME280;43703;51.060;-0.086;2023-03-01T02:01:35;101693.58;;;0.91;63.90
57885;BME280;43703;51.060;-0.086;2023-03-01T02:04:01;101687.51;;;1.68;66.72
57885;BME280;43703;51.060;-0.086;2023-03-01T02:06:28;101686.17;;;2.23;64.50
57885;BME280;43703;51.060;-0.086;2023-03-01T02:08:52;101683.62;;;1.09;63.60
57885;BME280;43703;51.060;-0.086;2023-03-01T02:11:17;101678.36;;;0.99;65.04
57885;BME280;43703;51.060;-0.086;2023-03-01T02:13:42;101676.52;;;1.24;64.59
57885;BME280;43703;51.060;-0.086;2023-03-01T02:16:10;101667.60;;;1.39;64.50
57885;BME280;43703;51.060;-0.086;2023-03-01T02:18:32;101661.40;;;1.88;64.73
57885;BME280;43703;51.060;-0.086;2023-03-01T02:21:08;101657.04;;;1.62;64.93
57885;BME280;43703;51.060;-0.086;2023-03-01T02:23:23;101650.18;;;2.39;65.37
57885;BME280;43703;51.060;-0.086;2023-03-01T02:25:54;101649.23;;;1.70;64.69
57885;BME280;43703;51.060;-0.086;2023-03-01T02:30:40;101644.62;;;1.67;64.17
57885;BME280;43703;51.060;-0.086;2023-03-01T02:33:07;101643.31;;;2.22;64.46
57885;BME280;43703;51.060;-0.086;2023-03-01T02:35:35;101640.14;;;1.70;63.11
57885;BME280;43703;51.060;-0.086;2023-03-01T02:37:57;101640.48;;;1.55;63.77
57885;BME280;43703;51.060;-0.086;2023-03-01T02:40:22;101638.86;;;1.25;63.37
57885;BME280;43703;51.060;-0.086;2023-03-01T02:42:50;101637.10;;;1.57;63.70
57885;BME280;43703;51.060;-0.086;2023-03-01T02:45:13;101633.75;;;1.93;63.82
57885;BME280;43703;51.060;-0.086;2023-03-01T02:47:39;101631.45;;;1.66;63.15
57885;BME280;43703;51.060;-0.086;2023-03-01T02:50:14;101630.55;;;1.31;62.77
57885;BME280;43703;51.060;-0.086;2023-03-01T02:52:40;101630.75;;;1.49;63.34
57885;BME280;43703;51.060;-0.086;2023-03-01T02:54:59;101632.28;;;1.66;63.04
57885;BME280;43703;51.060;-0.086;2023-03-01T02:57:23;101634.36;;;1.16;62.88
57885;BME280;43703;51.060;-0.086;2023-03-01T02:59:48;101632.65;;;1.43;64.19
57885;BME280;43703;51.060;-0.086;2023-03-01T03:02:19;101633.02;;;1.73;63.51
57885;BME280;43703;51.060;-0.086;2023-03-01T03:04:38;101627.60;;;2.04;62.82
57885;BME280;43703;51.060;-0.086;2023-03-01T03:07:04;101630.43;;;1.91;63.35
57885;BME280;43703;51.060;-0.086;2023-03-01T03:09:30;101622.59;;;2.02;64.52
57885;BME280;43703;51.060;-0.086;2023-03-01T03:11:55;101623.21;;;1.78;64.43
57885;BME280;43703;51.060;-0.086;2023-03-01T03:14:20;101619.54;;;2.05;64.02
57885;BME280;43703;51.060;-0.086;2023-03-01T03:16:49;101616.46;;;2.39;63.94
57885;BME280;43703;51.060;-0.086;2023-03-01T03:19:12;101614.48;;;2.62;64.27
57885;BME280;43703;51.060;-0.086;2023-03-01T03:21:37;101611.75;;;2.85;63.99
57885;BME280;43703;51.060;-0.086;2023-03-01T03:24:03;101612.98;;;1.62;62.96
57885;BME280;43703;51.060;-0.086;2023-03-01T03:26:28;101609.92;;;2.51;64.28
57885;BME280;43703;51.060;-0.086;2023-03-01T03:28:53;101610.75;;;1.46;63.03
57885;BME280;43703;51.060;-0.086;2023-03-01T03:31:18;101609.12;;;1.28;61.85
57885;BME280;43703;51.060;-0.086;2023-03-01T03:33:44;101606.80;;;2.21;63.35
57885;BME280;43703;51.060;-0.086;2023-03-01T03:36:09;101600.44;;;1.56;62.67
57885;BME280;43703;51.060;-0.086;2023-03-01T03:38:35;101594.82;;;1.71;63.56
57885;BME280;43703;51.060;-0.086;2023-03-01T03:41:02;101595.55;;;1.94;63.44
57885;BME280;43703;51.060;-0.086;2023-03-01T03:43:26;101589.89;;;1.60;63.33
57885;BME280;43703;51.060;-0.086;2023-03-01T03:45:52;101589.01;;;1.66;62.60
57885;BME280;43703;51.060;-0.086;2023-03-01T03:48:17;101584.40;;;2.04;64.01
57885;BME280;43703;51.060;-0.086;2023-03-01T03:50:47;101577.43;;;1.98;64.02
57885;BME280;43703;51.060;-0.086;2023-03-01T03:53:10;101577.18;;;2.47;63.90
57885;BME280;43703;51.060;-0.086;2023-03-01T03:55:33;101581.32;;;1.32;63.15
57885;BME280;43703;51.060;-0.086;2023-03-01T03:57:59;101581.56;;;1.17;63.62
57885;BME280;43703;51.060;-0.086;2023-03-01T04:00:24;101579.08;;;2.17;64.17
57885;BME280;43703;51.060;-0.086;2023-03-01T04:02:50;101575.01;;;1.89;63.50
57885;BME280;43703;51.060;-0.086;2023-03-01T04:05:16;101573.56;;;1.72;63.71
57885;BME280;43703;51.060;-0.086;2023-03-01T04:07:40;101570.78;;;1.72;64.64
57885;BME280;43703;51.060;-0.086;2023-03-01T04:10:08;101566.94;;;1.51;64.49
57885;BME280;43703;51.060;-0.086;2023-03-01T04:12:30;101566.09;;;2.21;64.54
57885;BME280;43703;51.060;-0.086;2023-03-01T04:14:56;101566.02;;;2.39;64.62
57885;BME280;43703;51.060;-0.086;2023-03-01T04:17:21;101563.49;;;2.32;64.75
57885;BME280;43703;51.060;-0.086;2023-03-01T04:19:46;101560.01;;;1.97;64.70
57885;BME280;43703;51.060;-0.086;2023-03-01T04:22:12;101559.47;;;1.95;64.63
57885;BME280;43703;51.060;-0.086;2023-03-01T04:24:37;101553.87;;;2.48;63.93
57885;BME280;43703;51.060;-0.086;2023-03-01T04:27:02;101548.06;;;1.76;64.01
57885;BME280;43703;51.060;-0.086;2023-03-01T04:29:28;101548.63;;;1.81;64.09
57885;BME280;43703;51.060;-0.086;2023-03-01T04:31:53;101545.95;;;1.33;64.52
57885;BME280;43703;51.060;-0.086;2023-03-01T04:34:18;101547.76;;;0.69;65.57
57885;BME280;43703;51.060;-0.086;2023-03-01T04:36:43;101538.83;;;1.87;65.19
57885;BME280;43703;51.060;-0.086;2023-03-01T04:39:08;101537.70;;;1.52;64.09
57885;BME280;43703;51.060;-0.086;2023-03-01T04:41:34;101533.76;;;1.39;64.79
57885;BME280;43703;51.060;-0.086;2023-03-01T04:43:59;101526.95;;;1.63;64.87
57885;BME280;43703;51.060;-0.086;2023-03-01T04:46:25;101527.61;;;1.73;64.66
57885;BME280;43703;51.060;-0.086;2023-03-01T04:48:50;101529.88;;;1.52;65.11
57885;BME280;43703;51.060;-0.086;2023-03-01T04:51:16;101530.13;;;1.71;64.66
57885;BME280;43703;51.060;-0.086;2023-03-01T04:53:42;101528.36;;;1.36;65.37
57885;BME280;43703;51.060;-0.086;2023-03-01T04:56:07;101526.64;;;0.90;65.84
57885;BME280;43703;51.060;-0.086;2023-03-01T04:58:32;101528.10;;;1.44;65.45
57885;BME280;43703;51.060;-0.086;2023-03-01T05:00:57;101529.26;;;1.42;64.80
57885;BME280;43703;51.060;-0.086;2023-03-01T05:03:23;101527.07;;;1.67;65.05
57885;BME280;43703;51.060;-0.086;2023-03-01T05:05:50;101523.11;;;1.24;66.00
57885;BME280;43703;51.060;-0.086;2023-03-01T05:08:14;101525.72;;;1.24;65.15
57885;BME280;43703;51.060;-0.086;2023-03-01T05:10:39;101524.16;;;1.37;65.75
57885;BME280;43703;51.060;-0.086;2023-03-01T05:13:05;101527.48;;;0.55;65.83
57885;BME280;43703;51.060;-0.086;2023-03-01T05:15:31;101527.07;;;0.93;65.59
57885;BME280;43703;51.060;-0.086;2023-03-01T05:17:58;101528.75;;;0.38;65.98
57885;BME280;43703;51.060;-0.086;2023-03-01T05:20:22;101526.98;;;0.89;66.79
57885;BME280;43703;51.060;-0.086;2023-03-01T05:22:47;101531.42;;;0.45;67.21
57885;BME280;43703;51.060;-0.086;2023-03-01T05:25:12;101526.12;;;0.94;65.74
57885;BME280;43703;51.060;-0.086;2023-03-01T05:27:38;101519.28;;;0.84;66.62
57885;BME280;43703;51.060;-0.086;2023-03-01T05:30:05;101517.20;;;0.68;67.31
57885;BME280;43703;51.060;-0.086;2023-03-01T05:32:29;101530.41;;;0.15;68.41
57885;BME280;43703;51.060;-0.086;2023-03-01T05:34:55;101526.55;;;0.60;68.28
57885;BME280;43703;51.060;-0.086;2023-03-01T05:37:20;101524.83;;;0.90;67.57
57885;BME280;43703;51.060;-0.086;2023-03-01T05:39:45;101524.63;;;1.43;65.90
57885;BME280;43703;51.060;-0.086;2023-03-01T05:42:11;101519.22;;;0.92;66.77
57885;BME280;43703;51.060;-0.086;2023-03-01T05:44:36;101525.12;;;0.96;66.30
57885;BME280;43703;51.060;-0.086;2023-03-01T05:47:02;101527.50;;;1.32;65.75
57885;BME280;43703;51.060;-0.086;2023-03-01T05:49:27;101526.68;;;0.79;66.11
57885;BME280;43703;51.060;-0.086;2023-03-01T05:51:53;101523.07;;;1.09;66.65
57885;BME280;43703;51.060;-0.086;2023-03-01T05:54:17;101523.96;;;0.84;66.80
57885;BME280;43703;51.060;-0.086;2023-03-01T05:56:43;101528.92;;;1.20;66.60
57885;BME280;43703;51.060;-0.086;2023-03-01T05:59:08;101527.14;;;1.38;66.04
57885;BME280;43703;51.060;-0.086;2023-03-01T06:01:34;101519.78;;;0.41;68.24
57885;BME280;43703;51.060;-0.086;2023-03-01T06:03:58;101518.77;;;0.59;67.60
57885;BME280;43703;51.060;-0.086;2023-03-01T06:06:24;101520.22;;;1.21;66.69
57885;BME280;43703;51.060;-0.086;2023-03-01T06:08:49;101520.09;;;1.26;66.66
57885;BME280;43703;51.060;-0.086;2023-03-01T06:11:14;101513.43;;;0.72;68.10
57885;BME280;43703;51.060;-0.086;2023-03-01T06:13:41;101516.20;;;0.75;68.66
57885;BME280;43703;51.060;-0.086;2023-03-01T06:16:05;101515.83;;;0.94;67.84
57885;BME280;43703;51.060;-0.086;2023-03-01T06:18:30;101514.18;;;1.61;66.99
57885;BME280;43703;51.060;-0.086;2023-03-01T06:20:55;101513.11;;;1.22;67.81
57885;BME280;43703;51.060;-0.086;2023-03-01T06:23:20;101514.66;;;1.31;67.24
57885;BME280;43703;51.060;-0.086;2023-03-01T06:25:45;101516.41;;;1.24;67.61
57885;BME280;43703;51.060;-0.086;2023-03-01T06:28:11;101518.48;;;1.05;67.91
57885;BME280;43703;51.060;-0.086;2023-03-01T06:30:36;101522.47;;;0.72;69.66
57885;BME280;43703;51.060;-0.086;2023-03-01T06:33:02;101519.75;;;0.69;70.78
57885;BME280;43703;51.060;-0.086;2023-03-01T06:35:28;101513.91;;;0.62;70.04
57885;BME280;43703;51.060;-0.086;2023-03-01T06:37:53;101521.47;;;0.58;68.94
57885;BME280;43703;51.060;-0.086;2023-03-01T06:40:18;101520.13;;;0.97;70.92
57885;BME280;43703;51.060;-0.086;2023-03-01T06:42:47;101521.97;;;0.85;69.33
57885;BME280;43703;51.060;-0.086;2023-03-01T06:45:10;101521.16;;;0.67;69.88
57885;BME280;43703;51.060;-0.086;2023-03-01T06:47:35;101521.19;;;1.57;68.15
57885;BME280;43703;51.060;-0.086;2023-03-01T06:50:01;101520.92;;;0.88;69.33
57885;BME280;43703;51.060;-0.086;2023-03-01T06:52:26;101522.61;;;1.34;68.43
57885;BME280;43703;51.060;-0.086;2023-03-01T06:54:52;101525.78;;;1.23;69.36
57885;BME280;43703;51.060;-0.086;2023-03-01T06:57:18;101526.96;;;0.79;69.28
57885;BME280;43703;51.060;-0.086;2023-03-01T06:59:43;101525.20;;;1.60;68.43
57885;BME280;43703;51.060;-0.086;2023-03-01T07:02:10;101529.69;;;1.22;68.05
57885;BME280;43703;51.060;-0.086;2023-03-01T07:04:33;101533.04;;;1.37;66.45
57885;BME280;43703;51.060;-0.086;2023-03-01T07:06:59;101535.76;;;1.32;67.52
57885;BME280;43703;51.060;-0.086;2023-03-01T07:09:24;101538.17;;;1.35;67.36
57885;BME280;43703;51.060;-0.086;2023-03-01T07:11:49;101532.67;;;1.17;68.86
57885;BME280;43703;51.060;-0.086;2023-03-01T07:14:14;101532.64;;;1.70;68.32
57885;BME280;43703;51.060;-0.086;2023-03-01T07:16:40;101534.59;;;1.77;68.62
57885;BME280;43703;51.060;-0.086;2023-03-01T07:19:05;101534.11;;;1.43;69.79
57885;BME280;43703;51.060;-0.086;2023-03-01T07:21:31;101531.28;;;2.06;68.44
57885;BME280;43703;51.060;-0.086;2023-03-01T07:23:56;101532.10;;;2.29;68.72
57885;BME280;43703;51.060;-0.086;2023-03-01T07:26:22;101529.23;;;1.26;69.98
57885;BME280;43703;51.060;-0.086;2023-03-01T07:28:47;101525.67;;;1.75;69.73
57885;BME280;43703;51.060;-0.086;2023-03-01T07:31:13;101520.08;;;1.96;69.04
57885;BME280;43703;51.060;-0.086;2023-03-01T07:33:38;101515.07;;;1.87;68.67
57885;BME280;43703;51.060;-0.086;2023-03-01T07:36:04;101508.96;;;2.44;68.66
57885;BME280;43703;51.060;-0.086;2023-03-01T07:38:29;101507.30;;;2.93;67.86
57885;BME280;43703;51.060;-0.086;2023-03-01T07:40:59;101513.59;;;2.90;67.55
57885;BME280;43703;51.060;-0.086;2023-03-01T07:43:19;101516.68;;;2.43;66.62
57885;BME280;43703;51.060;-0.086;2023-03-01T07:45:45;101514.01;;;2.48;67.08
57885;BME280;43703;51.060;-0.086;2023-03-01T07:48:10;101513.44;;;3.46;66.40
57885;BME280;43703;51.060;-0.086;2023-03-01T07:50:36;101510.32;;;2.72;65.88
57885;BME280;43703;51.060;-0.086;2023-03-01T07:53:01;101510.90;;;3.07;66.24
57885;BME280;43703;51.060;-0.086;2023-03-01T07:55:26;101510.56;;;3.07;66.64
57885;BME280;43703;51.060;-0.086;2023-03-01T07:57:51;101510.79;;;2.94;67.05
57885;BME280;43703;51.060;-0.086;2023-03-01T08:00:17;101515.32;;;3.08;67.07
57885;BME280;43703;51.060;-0.086;2023-03-01T08:02:41;101519.81;;;3.50;66.79
57885;BME280;43703;51.060;-0.086;2023-03-01T08:05:07;101523.24;;;2.88;66.64
57885;BME280;43703;51.060;-0.086;2023-03-01T08:07:33;101524.39;;;3.12;67.54
57885;BME280;43703;51.060;-0.086;2023-03-01T08:09:57;101522.31;;;3.71;66.88
57885;BME280;43703;51.060;-0.086;2023-03-01T08:12:23;101523.52;;;4.00;66.11
57885;BME280;43703;51.060;-0.086;2023-03-01T08:14:49;101528.60;;;3.48;66.09
57885;BME280;43703;51.060;-0.086;2023-03-01T08:17:14;101529.64;;;4.33;66.30
57885;BME280;43703;51.060;-0.086;2023-03-01T08:19:40;101526.09;;;4.59;66.29
57885;BME280;43703;51.060;-0.086;2023-03-01T08:22:05;101533.50;;;3.79;64.81
57885;BME280;43703;51.060;-0.086;2023-03-01T08:24:30;101534.84;;;4.55;65.82
57885;BME280;43703;51.060;-0.086;2023-03-01T08:26:55;101528.28;;;4.49;67.16
57885;BME280;43703;51.060;-0.086;2023-03-01T08:29:21;101525.56;;;4.56;64.75
57885;BME280;43703;51.060;-0.086;2023-03-01T08:31:46;101522.83;;;4.63;64.21
57885;BME280;43703;51.060;-0.086;2023-03-01T08:34:14;101522.05;;;5.23;66.72
57885;BME280;43703;51.060;-0.086;2023-03-01T08:36:39;101527.29;;;4.65;64.35
57885;BME280;43703;51.060;-0.086;2023-03-01T08:39:03;101527.01;;;4.87;65.47
57885;BME280;43703;51.060;-0.086;2023-03-01T08:41:28;101522.18;;;6.07;65.11
57885;BME280;43703;51.060;-0.086;2023-03-01T08:43:53;101520.78;;;6.55;67.59
57885;BME280;43703;51.060;-0.086;2023-03-01T08:46:23;101517.14;;;7.45;61.91
57885;BME280;43703;51.060;-0.086;2023-03-01T08:48:43;101512.91;;;6.91;61.50
57885;BME280;43703;51.060;-0.086;2023-03-01T08:51:09;101510.97;;;6.88;59.21
57885;BME280;43703;51.060;-0.086;2023-03-01T08:53:33;101510.66;;;7.49;66.45
57885;BME280;43703;51.060;-0.086;2023-03-01T08:55:59;101508.58;;;6.48;61.79
57885;BME280;43703;51.060;-0.086;2023-03-01T08:58:23;101507.42;;;5.33;62.51
57885;BME280;43703;51.060;-0.086;2023-03-01T09:00:48;101508.94;;;3.66;65.22
57885;BME280;43703;51.060;-0.086;2023-03-01T09:03:13;101509.25;;;3.95;65.00
57885;BME280;43703;51.060;-0.086;2023-03-01T09:05:38;101508.01;;;3.88;66.18
57885;BME280;43703;51.060;-0.086;2023-03-01T09:08:03;101508.41;;;4.22;65.34
57885;BME280;43703;51.060;-0.086;2023-03-01T09:10:29;101506.31;;;4.59;64.93
57885;BME280;43703;51.060;-0.086;2023-03-01T09:12:54;101501.69;;;4.33;64.89
57885;BME280;43703;51.060;-0.086;2023-03-01T09:15:19;101502.32;;;4.44;65.41
57885;BME280;43703;51.060;-0.086;2023-03-01T09:17:45;101505.54;;;4.26;66.05
57885;BME280;43703;51.060;-0.086;2023-03-01T09:20:11;101505.66;;;3.17;66.79
57885;BME280;43703;51.060;-0.086;2023-03-01T09:22:36;101499.37;;;4.37;67.02
57885;BME280;43703;51.060;-0.086;2023-03-01T09:25:01;101495.89;;;4.70;65.43
57885;BME280;43703;51.060;-0.086;2023-03-01T09:27:26;101489.02;;;4.94;65.06
57885;BME280;43703;51.060;-0.086;2023-03-01T09:29:51;101481.88;;;4.59;65.68
57885;BME280;43703;51.060;-0.086;2023-03-01T09:32:16;101481.23;;;4.14;65.55
57885;BME280;43703;51.060;-0.086;2023-03-01T09:34:41;101475.84;;;3.86;65.83
57885;BME280;43703;51.060;-0.086;2023-03-01T09:37:06;101475.23;;;3.15;66.84
57885;BME280;43703;51.060;-0.086;2023-03-01T09:39:31;101469.81;;;4.12;67.69
57885;BME280;43703;51.060;-0.086;2023-03-01T09:41:59;101466.08;;;4.41;68.23
57885;BME280;43703;51.060;-0.086;2023-03-01T09:44:29;101459.38;;;4.94;67.02
57885;BME280;43703;51.060;-0.086;2023-03-01T09:46:47;101458.31;;;4.99;68.16
57885;BME280;43703;51.060;-0.086;2023-03-01T09:49:15;101456.34;;;5.30;66.05
57885;BME280;43703;51.060;-0.086;2023-03-01T09:51:37;101455.71;;;5.40;66.22
57885;BME280;43703;51.060;-0.086;2023-03-01T09:54:03;101455.08;;;6.21;66.43
57885;BME280;43703;51.060;-0.086;2023-03-01T09:56:30;101451.14;;;5.61;63.05
57885;BME280;43703;51.060;-0.086;2023-03-01T09:58:56;101450.40;;;4.87;65.20
57885;BME280;43703;51.060;-0.086;2023-03-01T10:01:25;101451.72;;;3.77;66.10
57885;BME280;43703;51.060;-0.086;2023-03-01T10:03:44;101455.27;;;4.36;65.93
57885;BME280;43703;51.060;-0.086;2023-03-01T10:06:12;101453.20;;;4.48;67.16
57885;BME280;43703;51.060;-0.086;2023-03-01T10:08:38;101452.81;;;5.11;65.62
57885;BME280;43703;51.060;-0.086;2023-03-01T10:10:58;101455.90;;;3.79;67.15
57885;BME280;43703;51.060;-0.086;2023-03-01T10:13:27;101450.27;;;5.36;64.32
57885;BME280;43703;51.060;-0.086;2023-03-01T10:15:50;101446.03;;;6.12;65.68
57885;BME280;43703;51.060;-0.086;2023-03-01T10:18:18;101441.40;;;5.50;65.31
57885;BME280;43703;51.060;-0.086;2023-03-01T10:20:44;101435.47;;;6.41;65.19
57885;BME280;43703;51.060;-0.086;2023-03-01T10:23:04;101434.75;;;5.27;61.94
57885;BME280;43703;51.060;-0.086;2023-03-01T10:25:41;101439.23;;;5.78;61.32
57885;BME280;43703;51.060;-0.086;2023-03-01T10:27:57;101445.04;;;4.91;61.02
57885;BME280;43703;51.060;-0.086;2023-03-01T10:30:21;101440.97;;;4.38;62.63
57885;BME280;43703;51.060;-0.086;2023-03-01T10:32:44;101435.56;;;4.73;64.05
57885;BME280;43703;51.060;-0.086;2023-03-01T10:35:16;101435.45;;;5.11;63.49
57885;BME280;43703;51.060;-0.086;2023-03-01T10:37:35;101433.61;;;5.05;63.15
57885;BME280;43703;51.060;-0.086;2023-03-01T10:40:03;101430.71;;;5.98;62.55
57885;BME280;43703;51.060;-0.086;2023-03-01T10:42:27;101421.75;;;5.18;62.38
57885;BME280;43703;51.060;-0.086;2023-03-01T10:44:49;101415.77;;;4.80;62.00
57885;BME280;43703;51.060;-0.086;2023-03-01T10:47:18;101418.21;;;5.61;61.94
57885;BME280;43703;51.060;-0.086;2023-03-01T10:49:42;101420.01;;;5.42;62.02
57885;BME280;43703;51.060;-0.086;2023-03-01T10:52:17;101419.83;;;4.93;60.61
57885;BME280;43703;51.060;-0.086;2023-03-01T10:54:31;101415.70;;;5.00;64.02
57885;BME280;43703;51.060;-0.086;2023-03-01T10:56:56;101418.94;;;3.71;64.34
57885;BME280;43703;51.060;-0.086;2023-03-01T10:59:26;101408.79;;;5.70;64.49
57885;BME280;43703;51.060;-0.086;2023-03-01T11:01:44;101404.47;;;5.31;60.14
57885;BME280;43703;51.060;-0.086;2023-03-01T11:04:11;101406.87;;;4.61;60.84
57885;BME280;43703;51.060;-0.086;2023-03-01T11:06:35;101397.24;;;6.07;60.20
57885;BME280;43703;51.060;-0.086;2023-03-01T11:11:31;101398.76;;;4.21;60.34
57885;BME280;43703;51.060;-0.086;2023-03-01T11:13:53;101393.93;;;4.87;61.94
57885;BME280;43703;51.060;-0.086;2023-03-01T11:16:24;101393.76;;;5.08;61.91
57885;BME280;43703;51.060;-0.086;2023-03-01T11:18:40;101394.04;;;5.98;64.15
57885;BME280;43703;51.060;-0.086;2023-03-01T11:21:05;101388.43;;;5.20;61.69
57885;BME280;43703;51.060;-0.086;2023-03-01T11:23:30;101388.42;;;6.88;62.43
57885;BME280;43703;51.060;-0.086;2023-03-01T11:25:56;101392.30;;;6.53;58.35
57885;BME280;43703;51.060;-0.086;2023-03-01T11:28:21;101381.92;;;4.90;58.11
57885;BME280;43703;51.060;-0.086;2023-03-01T11:30:51;101375.37;;;5.44;55.92
57885;BME280;43703;51.060;-0.086;2023-03-01T11:33:16;101373.93;;;6.11;57.27
57885;BME280;43703;51.060;-0.086;2023-03-01T11:35:37;101372.09;;;5.31;56.80
57885;BME280;43703;51.060;-0.086;2023-03-01T11:38:09;101365.24;;;5.92;56.67
57885;BME280;43703;51.060;-0.086;2023-03-01T11:40:29;101360.23;;;5.81;57.52
57885;BME280;43703;51.060;-0.086;2023-03-01T11:42:59;101364.52;;;5.13;56.30
57885;BME280;43703;51.060;-0.086;2023-03-01T11:45:16;101357.88;;;5.85;56.87
57885;BME280;43703;51.060;-0.086;2023-03-01T11:47:55;101354.80;;;5.75;57.60
57885;BME280;43703;51.060;-0.086;2023-03-01T11:50:14;101349.33;;;5.33;56.49
57885;BME280;43703;51.060;-0.086;2023-03-01T11:52:39;101348.50;;;4.22;56.02
57885;BME280;43703;51.060;-0.086;2023-03-01T11:55:09;101350.09;;;5.26;56.91
57885;BME280;43703;51.060;-0.086;2023-03-01T11:57:33;101344.79;;;5.07;56.80
57885;BME280;43703;51.060;-0.086;2023-03-01T12:00:02;101341.02;;;5.55;55.14
57885;BME280;43703;51.060;-0.086;2023-03-01T12:02:22;101339.81;;;5.01;55.72
57885;BME280;43703;51.060;-0.086;2023-03-01T12:04:53;101333.91;;;4.82;57.19
57885;BME280;43703;51.060;-0.086;2023-03-01T12:07:05;101329.94;;;5.55;56.60
57885;BME280;43703;51.060;-0.086;2023-03-01T12:09:38;101328.19;;;5.59;57.04
57885;BME280;43703;51.060;-0.086;2023-03-01T12:12:11;101327.40;;;5.81;56.96
57885;BME280;43703;51.060;-0.086;2023-03-01T12:14:30;101327.02;;;5.54;57.41
57885;BME280;43703;51.060;-0.086;2023-03-01T12:16:55;101324.26;;;5.25;55.55
57885;BME280;43703;51.060;-0.086;2023-03-01T12:19:16;101318.87;;;4.94;55.82
57885;BME280;43703;51.060;-0.086;2023-03-01T12:21:41;101317.49;;;5.38;55.03
57885;BME280;43703;51.060;-0.086;2023-03-01T12:24:10;101311.31;;;6.31;53.49
57885;BME280;43703;51.060;-0.086;2023-03-01T12:26:28;101298.87;;;6.22;54.28
57885;BME280;43703;51.060;-0.086;2023-03-01T12:28:59;101298.55;;;5.34;54.67
57885;BME280;43703;51.060;-0.086;2023-03-01T12:33:45;101296.91;;;5.83;55.06
57885;BME280;43703;51.060;-0.086;2023-03-01T12:38:33;101293.40;;;6.04;55.76
57885;BME280;43703;51.060;-0.086;2023-03-01T12:41:02;101290.95;;;5.86;55.74
57885;BME280;43703;51.060;-0.086;2023-03-01T12:43:27;101297.08;;;5.39;55.56
57885;BME280;43703;51.060;-0.086;2023-03-01T12:45:52;101292.93;;;5.62;54.11
57885;BME280;43703;51.060;-0.086;2023-03-01T12:48:24;101287.86;;;5.81;53.81